Amazon Brilliance — C6CK8 — position and weather

sailwx.info

Track history (hours):
 
Tides and Currents Weather Stations Pressure Air Temp Water Temp Dewpoint Dewpoint Depression Visibility Wind Speed Wind Dir Waves Ship Positions

Amazon Brilliance

Last reported at 2017-Oct-10 23:58 UTC. Time now 2017-Oct-17 05:50 UTC.
Position N 40°25' W 073°28'.

Length 228 m; draft 8.1 m.

Type: Ship. MMSI: 311000500.

Date/timePositionNaut miles runAvg speedWind from/ knotsBaromVisibWave heightAir tempDewpointWater temp
2017-Oct-10 23:58N 40°25' W 073°28'714.8
2017-Oct-10 23:30N 40°25' W 073°37'914.8
2017-Oct-10 22:56N 40°26' W 073°49'611.7
2017-Oct-10 22:27N 40°27' W 073°56'612.8
2017-Oct-10 22:00N 40°29' W 074°03'10 6.9
2017-Oct-10 20:33N 40°33' W 074°15'0 6.2
2017-Oct-10 20:30N 40°33' W 074°14'3 5.2
2017-Oct-10 19:54N 40°36' W 074°12'2 4.7
2017-Oct-10 19:30N 40°38' W 074°12'0 0.0
2017-Oct-09 15:28N 40°38' W 074°12'1 2.1
2017-Oct-09 15:00N 40°39' W 074°11'3 6.7
2017-Oct-09 14:30N 40°39' W 074°07'3 5.8
2017-Oct-09 14:00N 40°38' W 074°03'4 8.5
2017-Oct-09 13:30N 40°34' W 074°02'5 9.1
2017-Oct-09 13:00N 40°31' W 073°58'612.2
2017-Oct-09 12:30N 40°28' W 073°51'14 8.0
2017-Oct-09 10:43N 40°28' W 073°32'3 8.5
2017-Oct-09 10:25N 40°28' W 073°29'4 8.4
2017-Oct-09 09:59N 40°29' W 073°24'3 6.5
2017-Oct-09 09:29N 40°29' W 073°20'10 8.2
2017-Oct-09 08:17N 40°30' W 073°07'  
Track history (hours):
 
Tides and Currents Weather Stations Pressure Air Temp Water Temp Dewpoint Dewpoint Depression Visibility Wind Speed Wind Dir Waves Ship Positions

Amazon Brilliance

Last reported at 2017-Oct-10 23:58 UTC. Time now 2017-Oct-17 05:50 UTC.
Position N 40°25' W 073°28'.

Length 228 m; draft 8.1 m.

Type: Ship. MMSI: 311000500.

Date/timePositionNaut miles runAvg speedWind from/ knotsBaromVisibWave heightAir tempDewpointWater temp
2017-Oct-10 23:58N 40°25' W 073°28'714.8
2017-Oct-10 23:30N 40°25' W 073°37'914.8
2017-Oct-10 22:56N 40°26' W 073°49'611.7
2017-Oct-10 22:27N 40°27' W 073°56'612.8
2017-Oct-10 22:00N 40°29' W 074°03'10 6.9
2017-Oct-10 20:33N 40°33' W 074°15'0 6.2
2017-Oct-10 20:30N 40°33' W 074°14'3 5.2
2017-Oct-10 19:54N 40°36' W 074°12'2 4.7
2017-Oct-10 19:30N 40°38' W 074°12'0 0.0
2017-Oct-09 15:28N 40°38' W 074°12'1 2.1
2017-Oct-09 15:00N 40°39' W 074°11'3 6.7
2017-Oct-09 14:30N 40°39' W 074°07'3 5.8
2017-Oct-09 14:00N 40°38' W 074°03'4 8.5
2017-Oct-09 13:30N 40°34' W 074°02'5 9.1
2017-Oct-09 13:00N 40°31' W 073°58'612.2
2017-Oct-09 12:30N 40°28' W 073°51'14 8.0
2017-Oct-09 10:43N 40°28' W 073°32'3 8.5
2017-Oct-09 10:25N 40°28' W 073°29'4 8.4
2017-Oct-09 09:59N 40°29' W 073°24'3 6.5
2017-Oct-09 09:29N 40°29' W 073°20'10 8.2
2017-Oct-09 08:17N 40°30' W 073°07'  

Dump ship's entire track history